createdAt,value
2023-02-19T00:01:40.696Z,101442.97
2023-02-19T00:04:09.881Z,101442.59
2023-02-19T00:06:39.692Z,101440.41
2023-02-19T00:09:07.770Z,101441.88
2023-02-19T00:11:36.298Z,101453.34
2023-02-19T00:14:04.805Z,101447.00
2023-02-19T00:16:34.287Z,101457.50
2023-02-19T00:19:03.082Z,101453.13
2023-02-19T00:21:31.459Z,101463.88
2023-02-19T00:24:01.628Z,101455.81
2023-02-19T00:26:30.147Z,101463.00
2023-02-19T00:28:58.778Z,101460.19
2023-02-19T00:31:27.774Z,101463.13
2023-02-19T00:33:57.700Z,101475.25
2023-02-19T00:36:26.360Z,101476.97
2023-02-19T00:38:54.622Z,101480.13
2023-02-19T00:41:24.992Z,101492.47
2023-02-19T00:43:53.677Z,101491.38
2023-02-19T00:46:23.659Z,101491.38
2023-02-19T00:48:52.685Z,101502.50
2023-02-19T00:51:21.801Z,101497.72
2023-02-19T00:53:50.200Z,101494.91
2023-02-19T00:56:19.376Z,101497.47
2023-02-19T00:58:49.028Z,101492.09
2023-02-19T01:01:17.555Z,101488.44
2023-02-19T01:03:46.657Z,101478.28
2023-02-19T01:06:15.671Z,101478.28
2023-02-19T01:08:44.029Z,101484.50
2023-02-19T01:11:13.094Z,101481.69
2023-02-19T01:13:41.433Z,101481.94
2023-02-19T01:16:14.970Z,101485.22
2023-02-19T01:18:43.392Z,101482.78
2023-02-19T01:21:14.189Z,101479.00
2023-02-19T01:23:42.339Z,101483.41
2023-02-19T01:26:14.522Z,101463.81
2023-02-19T01:28:42.791Z,101464.69
2023-02-19T01:31:13.547Z,101466.63
2023-02-19T01:33:45.170Z,101469.97
2023-02-19T01:36:13.277Z,101463.00
2023-02-19T01:38:41.570Z,101451.75
2023-02-19T01:41:12.037Z,101451.16
2023-02-19T01:43:56.332Z,101447.84
2023-02-19T01:46:26.448Z,101444.56
2023-02-19T01:48:57.607Z,101446.75
2023-02-19T01:51:25.824Z,101449.81
2023-02-19T01:53:58.599Z,101450.66
2023-02-19T01:56:27.998Z,101455.56
2023-02-19T01:58:56.493Z,101456.78
2023-02-19T02:01:24.476Z,101457.28
2023-02-19T02:03:53.449Z,101451.16
2023-02-19T02:06:24.824Z,101456.53
2023-02-19T02:09:11.912Z,101452.88
2023-02-19T02:11:41.828Z,101445.78
2023-02-19T02:14:10.103Z,101450.56
2023-02-19T02:16:45.322Z,101458.63
2023-02-19T02:19:26.000Z,101451.66
2023-02-19T02:22:02.888Z,101447.88
2023-02-19T02:24:43.129Z,101456.78
2023-02-19T02:27:27.740Z,101460.22
2023-02-19T02:30:17.545Z,101463.63
2023-02-19T02:32:53.697Z,101480.63
2023-02-19T02:35:24.645Z,101473.56
2023-02-19T02:37:54.120Z,101479.78
2023-02-19T02:40:23.435Z,101489.56
2023-02-19T02:42:51.484Z,101486.88
2023-02-19T02:45:37.721Z,101489.06
2023-02-19T02:48:31.561Z,101490.50
2023-02-19T02:51:01.695Z,101484.88
2023-02-19T02:53:54.422Z,101479.97
2023-02-19T02:56:23.453Z,101473.63
2023-02-19T02:58:53.762Z,101473.22
2023-02-19T03:01:42.509Z,101466.84
2023-02-19T03:04:14.356Z,101462.06
2023-02-19T03:06:43.287Z,101460.81
2023-02-19T03:09:12.918Z,101452.47
2023-02-19T03:12:02.611Z,101463.66
2023-02-19T03:14:52.981Z,101468.31
2023-02-19T03:17:40.993Z,101475.00
2023-02-19T03:20:13.913Z,101474.59
2023-02-19T03:22:45.998Z,101476.13
2023-02-19T03:25:33.650Z,101477.22
2023-02-19T03:28:04.785Z,101487.34
2023-02-19T03:30:34.414Z,101483.50
2023-02-19T03:33:08.172Z,101492.00
2023-02-19T03:35:41.353Z,101485.91
2023-02-19T03:38:18.833Z,101497.47
2023-02-19T03:40:53.151Z,101492.97
2023-02-19T03:43:23.143Z,101497.88
2023-02-19T03:45:57.559Z,101493.25
2023-02-19T03:48:30.390Z,101502.56
2023-02-19T03:51:13.237Z,101504.94
2023-02-19T03:53:47.660Z,101521.53
2023-02-19T03:56:20.186Z,101538.78
2023-02-19T03:58:55.132Z,101542.72
2023-02-19T04:01:26.053Z,101543.03
2023-02-19T04:03:58.033Z,101551.41
2023-02-19T04:06:28.461Z,101549.13
2023-02-19T04:09:00.629Z,101558.44
2023-02-19T04:11:30.343Z,101574.91
2023-02-19T04:14:06.540Z,101569.34
2023-02-19T04:16:36.321Z,101568.63
2023-02-19T04:19:07.888Z,101566.47
2023-02-19T04:21:37.694Z,101566.22
2023-02-19T04:24:08.705Z,101566.94
2023-02-19T04:26:37.160Z,101573.94
2023-02-19T04:29:05.357Z,101581.63
2023-02-19T04:31:35.914Z,101584.97
2023-02-19T04:34:04.702Z,101580.31
2023-02-19T04:36:32.863Z,101581.91
2023-02-19T04:39:01.217Z,101570.19
2023-02-19T04:41:31.168Z,101566.28
2023-02-19T04:43:59.206Z,101558.94
2023-02-19T04:46:27.410Z,101558.72
2023-02-19T04:48:55.552Z,101553.34
2023-02-19T04:51:23.581Z,101552.38
2023-02-19T04:53:51.757Z,101550.66
2023-02-19T04:56:19.964Z,101553.34
2023-02-19T04:58:49.363Z,101549.44
2023-02-19T05:01:17.700Z,101552.88
2023-02-19T05:03:45.794Z,101542.22
2023-02-19T05:06:14.727Z,101543.81
2023-02-19T05:08:42.836Z,101547.25
2023-02-19T05:11:12.966Z,101554.22
2023-02-19T05:13:41.537Z,101564.88
2023-02-19T05:16:13.895Z,101562.06
2023-02-19T05:18:42.263Z,101547.00
2023-02-19T05:21:11.218Z,101546.75
2023-02-19T05:23:40.089Z,101542.97
2023-02-19T05:26:08.282Z,101540.88
2023-02-19T05:28:36.595Z,101540.88
2023-02-19T05:31:09.293Z,101537.47
2023-02-19T05:33:39.268Z,101537.22
2023-02-19T05:36:08.440Z,101537.59
2023-02-19T05:38:37.005Z,101534.91
2023-02-19T05:41:09.607Z,101536.63
2023-02-19T05:43:38.268Z,101525.00
2023-02-19T05:46:06.920Z,101532.34
2023-02-19T05:48:35.841Z,101530.63
2023-02-19T05:51:06.052Z,101526.09
2023-02-19T05:53:34.424Z,101529.53
2023-02-19T05:56:02.499Z,101525.25
2023-02-19T05:58:30.762Z,101515.22
2023-02-19T06:00:58.904Z,101517.91
2023-02-19T06:03:27.176Z,101513.03
2023-02-19T06:05:55.232Z,101508.72
2023-02-19T06:08:24.911Z,101501.66
2023-02-19T06:10:52.974Z,101497.63
2023-02-19T06:13:21.051Z,101495.66
2023-02-19T06:15:49.214Z,101490.03
2023-02-19T06:18:17.233Z,101482.09
2023-02-19T06:20:45.269Z,101479.28
2023-02-19T06:23:13.332Z,101481.38
2023-02-19T06:25:43.108Z,101479.78
2023-02-19T06:28:11.340Z,101477.94
2023-02-19T06:30:39.393Z,101476.13
2023-02-19T06:33:07.396Z,101468.28
2023-02-19T06:35:35.412Z,101474.66
2023-02-19T06:38:03.474Z,101491.13
2023-02-19T06:40:31.917Z,101476.97
2023-02-19T06:43:01.474Z,101472.66
2023-02-19T06:45:29.432Z,101482.09
2023-02-19T06:47:57.713Z,101475.13
2023-02-19T06:50:25.797Z,101482.72
2023-02-19T06:52:53.811Z,101487.22
2023-02-19T06:55:21.961Z,101477.09
2023-02-19T06:57:50.080Z,101479.91
2023-02-19T07:00:19.903Z,101472.69
2023-02-19T07:02:48.306Z,101478.06
2023-02-19T07:05:16.337Z,101478.06
2023-02-19T07:07:46.528Z,101479.78
2023-02-19T07:10:14.820Z,101468.19
2023-02-19T07:12:42.955Z,101481.50
2023-02-19T07:15:11.003Z,101492.13
2023-02-19T07:17:40.487Z,101490.53
2023-02-19T07:20:08.731Z,101490.03
2023-02-19T07:22:37.343Z,101501.56
2023-02-19T07:25:05.642Z,101500.66
2023-02-19T07:27:33.687Z,101507.53
2023-02-19T07:30:02.263Z,101503.25
2023-02-19T07:32:30.332Z,101504.72
2023-02-19T07:35:00.402Z,101516.47
2023-02-19T07:37:28.866Z,101511.09
2023-02-19T07:39:56.972Z,101525.13
2023-02-19T07:42:25.035Z,101526.22
2023-02-19T07:44:53.094Z,101533.09
2023-02-19T07:47:21.120Z,101540.19
2023-02-19T07:49:49.367Z,101546.16
2023-02-19T07:52:19.241Z,101544.59
2023-02-19T07:54:47.307Z,101547.03
2023-02-19T07:57:15.907Z,101544.47
2023-02-19T07:59:43.975Z,101542.75
2023-02-19T08:02:34.070Z,101542.25
2023-02-19T08:05:02.190Z,101542.00
2023-02-19T08:07:33.998Z,101545.44
2023-02-19T08:10:16.022Z,101547.75
2023-02-19T08:13:01.628Z,101551.91
2023-02-19T08:15:29.838Z,101565.00
2023-02-19T08:17:58.071Z,101564.88
2023-02-19T08:20:26.281Z,101589.09
2023-02-19T08:22:56.322Z,101584.94
2023-02-19T08:25:25.936Z,101591.78
2023-02-19T08:27:54.580Z,101578.59
2023-02-19T08:30:23.578Z,101576.25
2023-02-19T08:32:51.782Z,101582.38
2023-02-19T08:35:20.608Z,101583.97
2023-02-19T08:37:49.239Z,101580.06
2023-02-19T08:40:18.829Z,101588.84
2023-02-19T08:42:47.438Z,101583.84
2023-02-19T08:45:16.137Z,101567.94
2023-02-19T08:47:44.352Z,101567.31
2023-02-19T08:50:12.807Z,101564.88
2023-02-19T08:52:40.935Z,101557.28
2023-02-19T08:55:09.319Z,101552.16
2023-02-19T08:57:39.111Z,101537.69
2023-02-19T09:00:08.962Z,101554.47
2023-02-19T09:02:37.139Z,101557.03
2023-02-19T09:05:05.797Z,101557.03
2023-02-19T09:07:33.848Z,101547.97
2023-02-19T09:10:02.254Z,101548.44
2023-02-19T09:12:30.416Z,101544.78
2023-02-19T09:15:00.198Z,101540.34
2023-02-19T09:17:28.867Z,101540.84
2023-02-19T09:19:56.953Z,101544.88
2023-02-19T09:22:24.975Z,101539.38
2023-02-19T09:24:53.078Z,101534.22
2023-02-19T09:27:21.797Z,101541.09
2023-02-19T09:29:49.839Z,101536.66
2023-02-19T09:32:19.680Z,101544.50
2023-02-19T09:34:47.690Z,101540.81
2023-02-19T09:37:15.777Z,101540.56
2023-02-19T09:39:44.098Z,101548.88
2023-02-19T09:42:15.503Z,101552.53
2023-02-19T09:44:45.300Z,101541.75
2023-02-19T09:47:16.843Z,101548.22
2023-02-19T09:49:52.106Z,101548.97
2023-02-19T09:52:26.181Z,101553.47
2023-02-19T09:54:57.991Z,101560.59
2023-02-19T09:57:27.565Z,101562.75
2023-02-19T10:00:00.391Z,101565.53
2023-02-19T10:02:30.880Z,101576.72
2023-02-19T10:05:01.818Z,101579.88
2023-02-19T10:07:36.313Z,101561.00
2023-02-19T10:10:10.393Z,101566.03
2023-02-19T10:12:38.568Z,101566.34
2023-02-19T10:15:10.679Z,101574.25
2023-02-19T10:17:40.292Z,101574.38
2023-02-19T10:20:13.969Z,101563.00
2023-02-19T10:22:42.738Z,101556.81
2023-02-19T10:25:14.055Z,101552.16
2023-02-19T10:27:42.149Z,101542.41
2023-02-19T10:30:18.638Z,101528.50
2023-02-19T10:32:59.757Z,101530.38
2023-02-19T10:35:30.066Z,101533.22
2023-02-19T10:37:58.325Z,101523.59
2023-02-19T10:40:28.767Z,101528.91
2023-02-19T10:42:58.975Z,101531.53
2023-02-19T10:45:30.060Z,101520.47
2023-02-19T10:47:58.302Z,101512.13
2023-02-19T10:50:27.985Z,101510.41
2023-02-19T10:52:59.390Z,101510.84
2023-02-19T10:55:29.625Z,101511.56
2023-02-19T10:57:57.852Z,101504.16
2023-02-19T11:00:27.765Z,101514.25
2023-02-19T11:03:16.026Z,101501.22
2023-02-19T11:05:51.957Z,101503.19
2023-02-19T11:08:24.688Z,101492.38
2023-02-19T11:10:53.172Z,101503.56
2023-02-19T11:13:27.418Z,101501.16
2023-02-19T11:15:56.771Z,101499.75
2023-02-19T11:18:26.413Z,101493.47
2023-02-19T11:20:56.001Z,101495.19
2023-02-19T11:23:28.328Z,101492.75
2023-02-19T11:25:57.874Z,101467.84
2023-02-19T11:28:33.053Z,101483.31
2023-02-19T11:31:15.886Z,101466.47
2023-02-19T11:33:52.260Z,101469.69
2023-02-19T11:36:30.470Z,101462.69
2023-02-19T11:39:03.941Z,101460.25
2023-02-19T11:42:02.372Z,101445.28
2023-02-19T11:44:39.313Z,101430.72
2023-02-19T11:47:21.452Z,101423.59
2023-02-19T11:49:55.446Z,101426.66
2023-02-19T11:52:30.813Z,101428.47
2023-02-19T11:55:08.208Z,101422.47
2023-02-19T11:57:41.012Z,101412.94
2023-02-19T12:00:26.318Z,101412.75
2023-02-19T12:03:27.528Z,101411.03
2023-02-19T12:06:05.899Z,101380.16
2023-02-19T12:08:47.415Z,101395.00
2023-02-19T12:11:36.558Z,101403.88
2023-02-19T12:14:19.960Z,101397.31
2023-02-19T12:16:55.026Z,101393.16
2023-02-19T12:19:34.196Z,101384.13
2023-02-19T12:22:21.838Z,101377.50
2023-02-19T12:25:01.913Z,101379.22
2023-02-19T12:27:38.911Z,101375.59
2023-02-19T12:30:21.412Z,101370.88
2023-02-19T12:32:59.704Z,101359.75
2023-02-19T12:35:42.168Z,101349.34
2023-02-19T12:38:16.479Z,101353.44
2023-02-19T12:40:51.405Z,101341.59
2023-02-19T12:43:20.513Z,101341.94
2023-02-19T12:45:53.373Z,101333.47
2023-02-19T12:48:29.665Z,101325.00
2023-02-19T12:51:00.104Z,101321.44
2023-02-19T12:53:41.902Z,101325.00
2023-02-19T12:56:13.881Z,101312.59
2023-02-19T12:58:46.330Z,101315.97
2023-02-19T13:01:22.535Z,101306.44
2023-02-19T13:03:58.802Z,101312.59
2023-02-19T13:06:35.405Z,101307.81
2023-02-19T13:09:10.822Z,101294.25
2023-02-19T13:11:43.807Z,101297.53
2023-02-19T13:14:19.268Z,101286.91
2023-02-19T13:16:52.803Z,101289.84
2023-02-19T13:19:25.273Z,101287.75
2023-02-19T13:22:15.351Z,101289.31
2023-02-19T13:24:46.751Z,101293.25
2023-02-19T13:27:33.413Z,101287.09
2023-02-19T13:30:25.723Z,101286.78
2023-02-19T13:33:01.050Z,101289.47
2023-02-19T13:35:45.442Z,101287.47
2023-02-19T13:38:15.716Z,101284.59
2023-02-19T13:40:54.697Z,101273.34
2023-02-19T13:43:25.705Z,101278.03
2023-02-19T13:45:56.755Z,101284.25
2023-02-19T13:48:31.603Z,101272.41
2023-02-19T13:51:18.931Z,101280.75
2023-02-19T13:54:00.493Z,101278.53
2023-02-19T13:56:39.896Z,101270.06
2023-02-19T13:59:15.555Z,101266.34
2023-02-19T14:02:14.636Z,101259.19
2023-02-19T14:04:53.432Z,101261.56
2023-02-19T14:07:46.384Z,101261.19
2023-02-19T14:10:38.084Z,101252.03
2023-02-19T14:13:08.493Z,101250.34
2023-02-19T14:15:44.137Z,101246.75
2023-02-19T14:18:51.541Z,101244.84
2023-02-19T14:21:26.192Z,101239.41
2023-02-19T14:23:57.610Z,101248.25
2023-02-19T14:26:30.006Z,101244.84
2023-02-19T14:29:09.095Z,101232.31
2023-02-19T14:31:38.506Z,101236.72
2023-02-19T14:34:15.141Z,101220.44
2023-02-19T14:36:50.357Z,101226.00
2023-02-19T14:39:19.425Z,101224.88
2023-02-19T14:41:52.039Z,101218.09
2023-02-19T14:44:24.052Z,101205.56
2023-02-19T14:46:58.432Z,101191.97
2023-02-19T14:49:29.442Z,101191.97
2023-02-19T14:52:00.670Z,101182.31
2023-02-19T14:54:35.641Z,101181.09
2023-02-19T14:57:06.268Z,101175.69
2023-02-19T14:59:34.452Z,101169.91
2023-02-19T15:02:03.525Z,101175.50
2023-02-19T15:04:36.055Z,101174.63
2023-02-19T15:07:07.932Z,101166.84
2023-02-19T15:09:38.627Z,101170.94
2023-02-19T15:12:15.442Z,101167.53
2023-02-19T15:14:45.990Z,101153.78
2023-02-19T15:17:17.194Z,101152.94
2023-02-19T15:19:45.320Z,101144.97
2023-02-19T15:22:16.555Z,101136.97
2023-02-19T15:24:47.543Z,101136.97
2023-02-19T15:27:21.472Z,101138.16
2023-02-19T15:29:52.284Z,101128.47
2023-02-19T15:32:23.158Z,101127.13
2023-02-19T15:34:55.387Z,101109.81
2023-02-19T15:37:24.879Z,101120.34
2023-02-19T15:39:54.909Z,101122.03
2023-02-19T15:42:27.355Z,101128.50
2023-02-19T15:44:58.047Z,101130.84
2023-02-19T15:47:29.793Z,101133.25
2023-02-19T15:50:00.382Z,101127.16
2023-02-19T15:52:35.203Z,101116.97
2023-02-19T15:55:12.844Z,101121.03
2023-02-19T15:57:46.382Z,101124.44
2023-02-19T16:00:16.905Z,101116.28
2023-02-19T16:02:45.736Z,101114.91
2023-02-19T16:05:16.029Z,101113.06
2023-02-19T16:07:44.955Z,101113.41
2023-02-19T16:10:21.301Z,101107.13
2023-02-19T16:12:57.564Z,101105.75
2023-02-19T16:15:26.902Z,101102.22
2023-02-19T16:17:56.789Z,101099.31
2023-02-19T16:20:26.045Z,101103.91
2023-02-19T16:22:58.489Z,101095.91
2023-02-19T16:25:29.680Z,101093.56
2023-02-19T16:28:00.013Z,101093.19
2023-02-19T16:30:30.183Z,101100.50
2023-02-19T16:33:28.818Z,101087.78
2023-02-19T16:35:57.082Z,101086.03
2023-02-19T16:38:26.433Z,101073.00
2023-02-19T16:41:06.031Z,101078.94
2023-02-19T16:43:41.566Z,101079.09
2023-02-19T16:46:10.974Z,101080.28
2023-02-19T16:48:43.067Z,101085.19
2023-02-19T16:51:25.714Z,101072.97
2023-02-19T16:53:53.975Z,101075.44
2023-02-19T16:56:23.243Z,101077.53
2023-02-19T16:58:53.662Z,101074.09
2023-02-19T17:01:21.886Z,101075.44
2023-02-19T17:03:50.065Z,101072.72
2023-02-19T17:06:18.389Z,101076.59
2023-02-19T17:08:47.277Z,101084.22
2023-02-19T17:11:17.194Z,101075.56
2023-02-19T17:13:46.971Z,101079.06
2023-02-19T17:16:21.153Z,101083.50
2023-02-19T17:18:49.850Z,101080.41
2023-02-19T17:21:21.388Z,101088.88
2023-02-19T17:23:49.600Z,101087.50
2023-02-19T17:26:23.224Z,101097.09
2023-02-19T17:28:51.388Z,101099.97
2023-02-19T17:31:20.976Z,101103.69
2023-02-19T17:33:49.831Z,101103.69
2023-02-19T17:36:19.456Z,101100.31
2023-02-19T17:38:47.687Z,101100.47
2023-02-19T17:41:15.793Z,101096.56
2023-02-19T17:43:44.143Z,101097.56
2023-02-19T17:46:16.120Z,101099.91
2023-02-19T17:48:46.718Z,101103.94
2023-02-19T17:51:14.926Z,101100.69
2023-02-19T17:53:43.427Z,101101.41
2023-02-19T17:56:14.010Z,101099.84
2023-02-19T17:58:42.146Z,101093.72
2023-02-19T18:01:10.790Z,101095.75
2023-02-19T18:03:39.728Z,101095.22
2023-02-19T18:06:09.409Z,101102.88
2023-02-19T18:08:37.794Z,101096.41
2023-02-19T18:11:07.556Z,101103.81
2023-02-19T18:13:35.777Z,101105.22
2023-02-19T18:16:03.858Z,101105.53
2023-02-19T18:18:32.031Z,101098.75
2023-02-19T18:21:00.315Z,101105.00
2023-02-19T18:23:29.794Z,101102.16
2023-02-19T18:25:57.853Z,101102.16
2023-02-19T18:28:26.036Z,101108.88
2023-02-19T18:30:54.583Z,101112.75
2023-02-19T18:33:23.015Z,101119.56
2023-02-19T18:35:51.070Z,101121.38
2023-02-19T18:38:19.422Z,101120.72
2023-02-19T18:40:48.890Z,101131.53
2023-02-19T18:43:17.019Z,101130.69
2023-02-19T18:45:46.668Z,101123.19
2023-02-19T18:48:14.801Z,101130.16
2023-02-19T18:50:42.962Z,101139.28
2023-02-19T18:53:11.629Z,101135.06
2023-02-19T18:55:39.803Z,101130.09
2023-02-19T18:58:09.627Z,101137.38
2023-02-19T19:00:37.774Z,101132.78
2023-02-19T19:03:06.608Z,101140.91
2023-02-19T19:05:34.897Z,101139.91
2023-02-19T19:08:02.988Z,101144.66
2023-02-19T19:10:31.177Z,101144.50
2023-02-19T19:12:59.689Z,101145.50
2023-02-19T19:15:29.212Z,101151.38
2023-02-19T19:17:57.557Z,101144.25
2023-02-19T19:20:25.665Z,101157.09
2023-02-19T19:22:54.356Z,101144.88
2023-02-19T19:25:23.138Z,101146.28
2023-02-19T19:27:51.855Z,101149.97
2023-02-19T19:30:21.172Z,101142.03
2023-02-19T19:32:51.825Z,101143.84
2023-02-19T19:35:21.781Z,101144.19
2023-02-19T19:37:50.578Z,101137.75
2023-02-19T19:40:19.139Z,101139.09
2023-02-19T19:42:48.068Z,101141.78
2023-02-19T19:45:16.294Z,101142.94
2023-02-19T19:47:44.349Z,101142.47
2023-02-19T19:50:14.606Z,101144.09
2023-02-19T19:52:42.667Z,101140.72
2023-02-19T19:55:10.850Z,101142.72
2023-02-19T19:57:40.905Z,101147.13
2023-02-19T20:00:09.641Z,101145.72
2023-02-19T20:02:40.649Z,101144.38
2023-02-19T20:05:09.110Z,101152.91
2023-02-19T20:07:38.621Z,101149.28
2023-02-19T20:10:07.769Z,101141.88
2023-02-19T20:12:36.204Z,101154.31
2023-02-19T20:15:04.911Z,101149.78
2023-02-19T20:17:33.722Z,101149.00
2023-02-19T20:20:02.158Z,101143.75
2023-02-19T20:22:30.584Z,101143.50
2023-02-19T20:25:00.192Z,101146.25
2023-02-19T20:27:29.274Z,101146.84
2023-02-19T20:29:57.259Z,101147.59
2023-02-19T20:32:25.585Z,101150.22
2023-02-19T20:34:53.640Z,101138.16
2023-02-19T20:37:21.737Z,101148.38
2023-02-19T20:39:50.050Z,101154.41
2023-02-19T20:42:19.626Z,101159.38
2023-02-19T20:44:48.142Z,101160.97
2023-02-19T20:47:16.144Z,101153.47
2023-02-19T20:49:46.100Z,101156.47
2023-02-19T20:52:15.385Z,101156.91
2023-02-19T20:54:44.488Z,101153.78
2023-02-19T20:57:13.865Z,101155.91
2023-02-19T20:59:45.288Z,101159.50
2023-02-19T21:02:16.888Z,101162.19
2023-02-19T21:04:45.465Z,101163.47
2023-02-19T21:07:13.659Z,101165.34
2023-02-19T21:09:42.674Z,101156.53
2023-02-19T21:12:11.453Z,101162.22
2023-02-19T21:14:39.907Z,101167.31
2023-02-19T21:17:10.161Z,101168.47
2023-02-19T21:19:39.107Z,101171.59
2023-02-19T21:22:07.760Z,101176.59
2023-02-19T21:24:38.949Z,101171.63
2023-02-19T21:27:08.718Z,101172.75
2023-02-19T21:29:36.897Z,101171.31
2023-02-19T21:32:05.361Z,101177.16
2023-02-19T21:34:35.053Z,101175.59
2023-02-19T21:37:04.320Z,101179.13
2023-02-19T21:39:36.160Z,101168.47
2023-02-19T21:42:04.783Z,101181.28
2023-02-19T21:44:32.923Z,101184.94
2023-02-19T21:47:01.699Z,101185.25
2023-02-19T21:49:30.193Z,101184.78
2023-02-19T21:52:00.047Z,101190.34
2023-02-19T21:54:28.185Z,101186.34
2023-02-19T21:56:57.024Z,101186.34
2023-02-19T21:59:25.963Z,101181.94
2023-02-19T22:01:57.088Z,101184.94
2023-02-19T22:04:26.077Z,101185.19
2023-02-19T22:06:56.061Z,101188.00
2023-02-19T22:09:25.622Z,101188.00
2023-02-19T22:11:54.751Z,101188.28
2023-02-19T22:14:24.696Z,101185.75
2023-02-19T22:16:52.968Z,101186.03
2023-02-19T22:19:21.180Z,101186.13
2023-02-19T22:21:49.435Z,101188.72
2023-02-19T22:24:24.237Z,101191.97
2023-02-19T22:26:57.686Z,101183.75
2023-02-19T22:29:26.560Z,101190.84
2023-02-19T22:31:56.373Z,101181.19
2023-02-19T22:34:25.050Z,101182.63
2023-02-19T22:36:54.614Z,101191.41
2023-02-19T22:39:25.059Z,101191.03
2023-02-19T22:41:54.769Z,101189.03
2023-02-19T22:44:22.898Z,101185.38
2023-02-19T22:46:52.572Z,101196.31
2023-02-19T22:49:22.217Z,101184.66
2023-02-19T22:51:54.872Z,101186.22
2023-02-19T22:54:26.798Z,101187.78
2023-02-19T22:56:57.587Z,101195.75
2023-02-19T22:59:25.631Z,101181.69
2023-02-19T23:01:54.215Z,101175.59
2023-02-19T23:04:23.577Z,101175.00
2023-02-19T23:06:52.276Z,101170.59
2023-02-19T23:09:22.156Z,101174.16
2023-02-19T23:11:53.859Z,101170.59
2023-02-19T23:14:24.417Z,101166.91
2023-02-19T23:16:52.790Z,101178.44
2023-02-19T23:19:20.989Z,101171.31
2023-02-19T23:21:49.109Z,101165.34
2023-02-19T23:24:17.792Z,101158.81
2023-02-19T23:26:46.210Z,101165.06
2023-02-19T23:29:16.163Z,101157.41
2023-02-19T23:31:45.921Z,101154.56
2023-02-19T23:34:14.329Z,101139.22
2023-02-19T23:36:42.725Z,101140.94
2023-02-19T23:39:11.400Z,101136.94
2023-02-19T23:41:39.578Z,101131.00
2023-02-19T23:44:07.676Z,101128.31
2023-02-19T23:46:35.780Z,101118.06
2023-02-19T23:49:05.718Z,101120.22
2023-02-19T23:51:33.865Z,101106.88
2023-02-19T23:54:01.891Z,101116.81
2023-02-19T23:56:30.351Z,101109.44
2023-02-19T23:58:58.708Z,101113.84
